createdAt,value
2023-01-06T00:02:06.227Z,11.93
2023-01-06T00:07:13.713Z,11.25
2023-01-06T00:09:39.977Z,8.00
2023-01-06T00:12:07.469Z,8.35
2023-01-06T00:14:33.980Z,8.52
2023-01-06T00:17:00.267Z,8.43
2023-01-06T00:19:26.620Z,9.80
2023-01-06T00:21:52.934Z,5.70
2023-01-06T00:24:19.786Z,7.22
2023-01-06T00:26:46.065Z,7.88
2023-01-06T00:29:12.353Z,11.35
2023-01-06T00:31:38.633Z,14.68
2023-01-06T00:34:05.036Z,12.32
2023-01-06T00:36:31.411Z,8.85
2023-01-06T00:38:57.781Z,12.05
2023-01-06T00:41:42.827Z,12.05
2023-01-06T00:44:09.189Z,8.70
2023-01-06T00:46:35.599Z,12.23
2023-01-06T00:49:06.701Z,11.52
2023-01-06T00:51:34.788Z,15.88
2023-01-06T00:54:01.144Z,16.40
2023-01-06T00:56:27.406Z,7.78
2023-01-06T00:58:53.955Z,10.45
2023-01-06T01:01:20.378Z,14.15
2023-01-06T01:03:46.724Z,16.42
2023-01-06T01:06:13.118Z,14.98
2023-01-06T01:08:39.413Z,14.95
2023-01-06T01:11:07.131Z,11.38
2023-01-06T01:13:33.481Z,8.63
2023-01-06T01:16:03.989Z,8.45
2023-01-06T01:20:56.996Z,7.65
2023-01-06T01:23:23.314Z,10.98
2023-01-06T01:25:49.658Z,10.60
2023-01-06T01:28:15.982Z,11.43
2023-01-06T01:30:42.325Z,7.38
2023-01-06T01:33:08.689Z,7.00
2023-01-06T01:35:34.997Z,10.30
2023-01-06T01:38:01.252Z,8.25
2023-01-06T01:40:27.509Z,6.57
2023-01-06T01:42:53.984Z,9.38
2023-01-06T01:45:29.618Z,6.97
2023-01-06T01:48:00.951Z,9.02
2023-01-06T01:50:29.521Z,5.93
2023-01-06T01:53:02.094Z,16.33
2023-01-06T01:55:29.149Z,10.32
2023-01-06T01:58:08.251Z,9.13
2023-01-06T02:00:35.457Z,11.70
2023-01-06T02:03:02.724Z,7.53
2023-01-06T02:05:29.160Z,8.68
2023-01-06T02:07:57.530Z,9.20
2023-01-06T02:10:24.422Z,7.55
2023-01-06T02:12:52.573Z,4.40
2023-01-06T02:15:26.563Z,6.20
2023-01-06T02:17:55.853Z,3.50
2023-01-06T02:20:22.191Z,9.80
2023-01-06T02:23:11.459Z,10.55
2023-01-06T02:25:43.938Z,14.82
2023-01-06T02:28:28.940Z,4.75
2023-01-06T02:30:55.284Z,8.05
2023-01-06T02:33:30.843Z,6.88
2023-01-06T02:36:10.595Z,8.27
2023-01-06T02:38:44.427Z,8.60
2023-01-06T02:41:15.477Z,10.07
2023-01-06T02:44:02.783Z,10.02
2023-01-06T02:46:58.457Z,10.65
2023-01-06T02:49:30.750Z,6.50
2023-01-06T02:52:17.321Z,8.38
2023-01-06T02:54:58.416Z,10.75
2023-01-06T02:57:33.581Z,10.15
2023-01-06T02:59:59.867Z,8.43
2023-01-06T03:02:27.491Z,12.85
2023-01-06T03:04:55.467Z,5.88
2023-01-06T03:07:22.606Z,11.30
2023-01-06T03:09:50.919Z,10.40
2023-01-06T03:12:25.185Z,5.65
2023-01-06T03:14:52.842Z,5.40
2023-01-06T03:17:19.200Z,4.57
2023-01-06T03:19:45.661Z,5.18
2023-01-06T03:22:12.474Z,9.55
2023-01-06T03:24:39.267Z,9.70
2023-01-06T03:27:05.885Z,5.75
2023-01-06T03:29:32.626Z,10.57
2023-01-06T03:32:05.068Z,5.75
2023-01-06T03:34:48.142Z,6.13
2023-01-06T03:37:23.670Z,8.10
2023-01-06T03:39:53.101Z,7.72
2023-01-06T03:42:56.860Z,7.43
2023-01-06T03:45:35.245Z,5.72
2023-01-06T03:48:07.655Z,7.78
2023-01-06T03:50:46.653Z,10.75
2023-01-06T03:53:31.278Z,6.45
2023-01-06T03:56:01.214Z,9.60
2023-01-06T03:58:27.846Z,10.50
2023-01-06T04:00:54.224Z,9.60
2023-01-06T04:03:23.448Z,8.38
2023-01-06T04:05:50.123Z,5.32
2023-01-06T04:08:16.459Z,5.40
2023-01-06T04:10:42.779Z,5.75
2023-01-06T04:13:09.063Z,4.45
2023-01-06T04:15:35.362Z,4.38
2023-01-06T04:18:01.676Z,5.53
2023-01-06T04:20:29.361Z,7.10
2023-01-06T04:22:56.705Z,9.23
2023-01-06T04:25:23.494Z,8.77
2023-01-06T04:27:49.826Z,3.38
2023-01-06T04:30:16.416Z,7.53
2023-01-06T04:32:42.671Z,5.53
2023-01-06T04:35:09.163Z,5.10
2023-01-06T04:37:35.558Z,6.03
2023-01-06T04:40:02.066Z,6.18
2023-01-06T04:42:28.379Z,6.47
2023-01-06T04:44:54.742Z,3.92
2023-01-06T04:47:21.081Z,3.85
2023-01-06T04:49:47.396Z,7.70
2023-01-06T04:52:13.709Z,4.03
2023-01-06T04:54:40.049Z,4.03
2023-01-06T04:57:06.409Z,2.63
2023-01-06T04:59:32.754Z,5.78
2023-01-06T05:01:59.047Z,5.78
2023-01-06T05:04:25.451Z,5.93
2023-01-06T05:06:51.792Z,8.45
2023-01-06T05:09:18.094Z,2.97
2023-01-06T05:11:44.359Z,3.22
2023-01-06T05:14:10.705Z,3.55
2023-01-06T05:16:38.303Z,7.60
2023-01-06T05:19:04.701Z,4.97
2023-01-06T05:21:32.895Z,5.60
2023-01-06T05:23:59.888Z,6.90
2023-01-06T05:26:27.036Z,7.97
2023-01-06T05:28:53.391Z,5.25
2023-01-06T05:31:19.740Z,4.97
2023-01-06T05:33:46.045Z,7.20
2023-01-06T05:36:13.424Z,6.55
2023-01-06T05:38:39.772Z,5.60
2023-01-06T05:41:06.338Z,5.50
2023-01-06T05:43:33.517Z,5.43
2023-01-06T05:46:00.483Z,6.53
2023-01-06T05:48:27.521Z,2.50
2023-01-06T05:51:00.339Z,12.45
2023-01-06T05:53:26.639Z,3.25
2023-01-06T05:55:52.953Z,2.67
2023-01-06T05:58:19.287Z,7.50
2023-01-06T06:00:45.604Z,6.85
2023-01-06T06:03:11.875Z,10.27
2023-01-06T06:05:38.198Z,11.18
2023-01-06T06:08:04.658Z,9.00
2023-01-06T06:10:30.969Z,6.82
2023-01-06T06:12:57.274Z,6.10
2023-01-06T06:15:23.512Z,5.22
2023-01-06T06:17:49.805Z,3.90
2023-01-06T06:20:16.189Z,4.30
2023-01-06T06:22:42.447Z,4.72
2023-01-06T06:25:08.992Z,4.30
2023-01-06T06:27:35.305Z,4.22
2023-01-06T06:30:01.577Z,6.07
2023-01-06T06:32:29.963Z,6.35
2023-01-06T06:34:56.281Z,1.75
2023-01-06T06:37:22.644Z,4.53
2023-01-06T06:39:49.071Z,3.38
2023-01-06T06:42:15.406Z,6.97
2023-01-06T06:44:41.681Z,5.22
2023-01-06T06:47:07.994Z,6.15
2023-01-06T06:49:34.329Z,4.20
2023-01-06T06:52:00.578Z,6.53
2023-01-06T06:54:26.850Z,3.53
2023-01-06T06:56:53.218Z,5.00
2023-01-06T06:59:19.531Z,5.55
2023-01-06T07:01:45.957Z,6.43
2023-01-06T07:04:12.448Z,6.90
2023-01-06T07:06:38.836Z,3.33
2023-01-06T07:09:05.718Z,5.88
2023-01-06T07:11:31.975Z,3.22
2023-01-06T07:13:58.497Z,3.47
2023-01-06T07:16:26.652Z,7.57
2023-01-06T07:18:53.344Z,5.22
2023-01-06T07:21:19.677Z,3.20
2023-01-06T07:23:46.042Z,3.28
2023-01-06T07:26:12.340Z,5.18
2023-01-06T07:28:38.702Z,6.72
2023-01-06T07:31:05.393Z,7.32
2023-01-06T07:33:31.729Z,3.35
2023-01-06T07:35:58.054Z,1.70
2023-01-06T07:38:24.567Z,2.20
2023-01-06T07:40:51.033Z,7.63
2023-01-06T07:43:17.547Z,3.13
2023-01-06T07:45:45.766Z,4.72
2023-01-06T07:48:12.130Z,3.67
2023-01-06T07:50:38.487Z,3.03
2023-01-06T07:53:04.832Z,2.45
2023-01-06T07:55:31.181Z,3.17
2023-01-06T07:57:58.657Z,5.30
2023-01-06T08:00:25.464Z,2.75
2023-01-06T08:02:52.078Z,3.47
2023-01-06T08:05:18.533Z,4.93
2023-01-06T08:07:49.214Z,8.90
2023-01-06T08:12:41.884Z,3.95
2023-01-06T08:15:08.501Z,5.57
2023-01-06T08:17:36.139Z,5.95
2023-01-06T08:20:02.781Z,8.43
2023-01-06T08:22:29.159Z,7.80
2023-01-06T08:24:58.956Z,5.20
2023-01-06T08:27:26.841Z,7.50
2023-01-06T08:30:02.073Z,6.75
2023-01-06T08:32:28.732Z,8.13
2023-01-06T08:34:55.161Z,7.50
2023-01-06T08:37:21.601Z,5.00
2023-01-06T08:39:48.178Z,12.77
2023-01-06T08:42:14.754Z,14.45
2023-01-06T08:44:41.380Z,12.82
2023-01-06T08:47:07.914Z,5.20
2023-01-06T08:49:34.288Z,8.13
2023-01-06T08:52:00.667Z,9.82
2023-01-06T08:54:27.701Z,13.77
2023-01-06T08:56:54.040Z,9.27
2023-01-06T08:59:20.367Z,8.85
2023-01-06T09:01:46.856Z,11.82
2023-01-06T09:04:13.564Z,17.98
2023-01-06T09:06:41.729Z,17.65
2023-01-06T09:09:08.190Z,9.63
2023-01-06T09:11:34.712Z,11.13
2023-01-06T09:14:01.132Z,18.27
2023-01-06T09:16:27.541Z,8.38
2023-01-06T09:18:54.195Z,22.52
2023-01-06T09:21:22.936Z,17.65
2023-01-06T09:23:49.478Z,13.52
2023-01-06T09:26:16.382Z,17.17
2023-01-06T09:28:42.888Z,14.48
2023-01-06T09:31:09.654Z,15.32
2023-01-06T09:33:36.224Z,13.38
2023-01-06T09:36:02.865Z,14.32
2023-01-06T09:38:29.211Z,18.83
2023-01-06T09:41:01.365Z,15.13
2023-01-06T09:43:27.733Z,20.77
2023-01-06T09:45:56.137Z,12.38
2023-01-06T09:48:27.061Z,21.35
2023-01-06T09:50:56.895Z,14.50
2023-01-06T09:53:26.246Z,12.97
2023-01-06T09:55:57.880Z,19.33
2023-01-06T09:58:27.861Z,12.95
2023-01-06T10:00:55.015Z,14.90
2023-01-06T10:03:25.597Z,15.90
2023-01-06T10:08:18.219Z,14.68
2023-01-06T10:10:50.547Z,15.02
2023-01-06T10:13:19.942Z,17.52
2023-01-06T10:16:01.487Z,14.55
2023-01-06T10:18:32.821Z,14.20
2023-01-06T10:21:02.177Z,13.32
2023-01-06T10:23:37.692Z,7.55
2023-01-06T10:26:14.391Z,9.27
2023-01-06T10:28:45.221Z,12.77
2023-01-06T10:31:13.351Z,10.88
2023-01-06T10:33:51.783Z,11.30
2023-01-06T10:36:20.639Z,11.52
2023-01-06T10:38:49.688Z,14.05
2023-01-06T10:41:31.439Z,9.88
2023-01-06T10:43:58.011Z,10.48
2023-01-06T10:46:27.791Z,10.73
2023-01-06T10:48:55.627Z,6.78
2023-01-06T10:51:33.074Z,5.97
2023-01-06T10:54:01.200Z,11.68
2023-01-06T10:56:29.156Z,11.85
2023-01-06T10:58:58.113Z,8.23
2023-01-06T11:01:25.596Z,8.23
2023-01-06T11:04:06.784Z,9.70
2023-01-06T11:06:34.042Z,11.75
2023-01-06T11:09:06.211Z,7.32
2023-01-06T11:11:32.695Z,10.35
2023-01-06T11:14:00.761Z,5.80
2023-01-06T11:16:34.317Z,6.97
2023-01-06T11:19:02.714Z,10.13
2023-01-06T11:21:40.175Z,6.30
2023-01-06T11:24:18.124Z,9.25
2023-01-06T11:26:45.702Z,11.18
2023-01-06T11:29:19.601Z,7.28
2023-01-06T11:31:48.237Z,8.50
2023-01-06T11:34:22.011Z,7.30
2023-01-06T11:36:48.433Z,7.88
2023-01-06T11:39:21.620Z,9.05
2023-01-06T11:41:49.290Z,10.93
2023-01-06T11:44:18.790Z,7.70
2023-01-06T11:46:51.085Z,5.90
2023-01-06T11:49:22.623Z,12.10
2023-01-06T11:51:49.381Z,8.85
2023-01-06T11:54:24.398Z,3.95
2023-01-06T11:56:57.469Z,10.55
2023-01-06T11:59:25.485Z,5.20
2023-01-06T12:01:53.970Z,10.70
2023-01-06T12:04:30.649Z,5.30
2023-01-06T12:07:03.386Z,14.07
2023-01-06T12:09:31.528Z,11.32
2023-01-06T12:11:59.276Z,7.93
2023-01-06T12:14:30.570Z,6.38
2023-01-06T12:17:15.484Z,9.25
2023-01-06T12:20:02.251Z,9.65
2023-01-06T12:22:28.524Z,6.68
2023-01-06T12:24:56.443Z,7.55
2023-01-06T12:27:44.530Z,12.13
2023-01-06T12:30:31.257Z,7.85
2023-01-06T12:33:00.846Z,7.55
2023-01-06T12:35:29.540Z,12.30
2023-01-06T12:38:16.292Z,5.30
2023-01-06T12:40:46.093Z,4.97
2023-01-06T12:43:19.928Z,7.65
2023-01-06T12:45:49.800Z,5.78
2023-01-06T12:48:26.847Z,8.05
2023-01-06T12:53:20.770Z,11.88
2023-01-06T12:56:02.769Z,7.80
2023-01-06T12:58:35.848Z,8.70
2023-01-06T13:01:09.070Z,8.95
2023-01-06T13:03:44.795Z,7.63
2023-01-06T13:06:20.859Z,5.40
2023-01-06T13:08:53.358Z,5.35
2023-01-06T13:11:34.975Z,8.25
2023-01-06T13:14:04.295Z,7.05
2023-01-06T13:16:36.825Z,7.90
2023-01-06T13:19:29.262Z,6.28
2023-01-06T13:21:56.705Z,9.65
2023-01-06T13:24:26.026Z,7.97
2023-01-06T13:27:05.588Z,4.13
2023-01-06T13:29:46.134Z,11.83
2023-01-06T13:32:12.439Z,8.38
2023-01-06T13:34:47.972Z,8.90
2023-01-06T13:37:27.112Z,8.05
2023-01-06T13:39:59.476Z,7.45
2023-01-06T13:42:34.198Z,6.68
2023-01-06T13:45:01.050Z,8.18
2023-01-06T13:47:27.552Z,8.35
2023-01-06T13:49:53.920Z,5.03
2023-01-06T13:52:23.220Z,6.25
2023-01-06T13:54:49.633Z,7.93
2023-01-06T13:57:22.152Z,2.72
2023-01-06T13:59:49.371Z,7.47
2023-01-06T14:02:34.921Z,6.47
2023-01-06T14:05:05.642Z,6.20
2023-01-06T14:07:33.102Z,4.78
2023-01-06T14:10:00.377Z,7.93
2023-01-06T14:12:26.910Z,11.35
2023-01-06T14:15:05.211Z,14.43
2023-01-06T14:17:41.652Z,6.88
2023-01-06T14:20:28.434Z,5.82
2023-01-06T14:22:58.270Z,3.13
2023-01-06T14:25:24.780Z,8.32
2023-01-06T14:27:51.052Z,3.63
2023-01-06T14:30:23.459Z,9.18
2023-01-06T14:32:49.801Z,8.20
2023-01-06T14:35:17.532Z,5.15
2023-01-06T14:37:47.428Z,7.10
2023-01-06T14:40:19.367Z,7.93
2023-01-06T14:42:46.291Z,11.50
2023-01-06T14:45:21.759Z,6.53
2023-01-06T14:47:50.536Z,7.95
2023-01-06T14:50:26.322Z,4.70
2023-01-06T14:52:57.436Z,4.95
2023-01-06T14:55:25.327Z,4.97
2023-01-06T14:57:51.681Z,10.05
2023-01-06T15:00:18.597Z,7.00
2023-01-06T15:02:50.279Z,9.93
2023-01-06T15:05:26.861Z,8.38
2023-01-06T15:08:01.347Z,8.70
2023-01-06T15:10:28.672Z,4.40
2023-01-06T15:12:57.211Z,9.27
2023-01-06T15:15:31.561Z,9.32
2023-01-06T15:17:59.046Z,8.30
2023-01-06T15:20:28.681Z,9.73
2023-01-06T15:22:55.105Z,7.35
2023-01-06T15:25:22.664Z,12.73
2023-01-06T15:27:49.359Z,7.22
2023-01-06T15:30:17.854Z,8.80
2023-01-06T15:32:44.430Z,6.95
2023-01-06T15:35:17.913Z,13.30
2023-01-06T15:37:45.290Z,11.55
2023-01-06T15:40:17.865Z,7.10
2023-01-06T15:42:44.261Z,6.95
2023-01-06T15:45:22.858Z,10.63
2023-01-06T15:47:49.324Z,14.20
2023-01-06T15:50:20.042Z,12.15
2023-01-06T15:52:57.269Z,11.07
2023-01-06T15:55:49.864Z,10.20
2023-01-06T15:58:35.732Z,16.75
2023-01-06T16:01:08.271Z,8.38
2023-01-06T16:03:39.175Z,15.10
2023-01-06T16:06:11.584Z,8.73
2023-01-06T16:08:38.353Z,10.75
2023-01-06T16:11:16.951Z,12.65
2023-01-06T16:13:56.645Z,12.02
2023-01-06T16:16:25.360Z,11.32
2023-01-06T16:18:55.037Z,17.83
2023-01-06T16:21:29.533Z,13.45
2023-01-06T16:23:55.792Z,10.63
2023-01-06T16:26:23.870Z,12.88
2023-01-06T16:28:52.065Z,16.23
2023-01-06T16:31:29.066Z,22.48
2023-01-06T16:33:55.570Z,12.63
2023-01-06T16:36:22.015Z,22.75
2023-01-06T16:38:48.504Z,17.13
2023-01-06T16:41:17.043Z,19.85
2023-01-06T16:43:46.314Z,14.32
2023-01-06T16:46:25.009Z,13.23
2023-01-06T16:48:53.150Z,11.82
2023-01-06T16:51:19.576Z,13.43
2023-01-06T16:53:46.243Z,11.57
2023-01-06T16:56:22.059Z,14.75
2023-01-06T16:58:49.193Z,13.77
2023-01-06T17:01:17.159Z,11.50
2023-01-06T17:03:44.149Z,14.93
2023-01-06T17:06:11.832Z,12.35
2023-01-06T17:08:38.525Z,8.43
2023-01-06T17:11:16.284Z,14.13
2023-01-06T17:13:48.158Z,12.35
2023-01-06T17:16:16.427Z,13.23
2023-01-06T17:18:45.827Z,11.30
2023-01-06T17:21:14.069Z,14.05
2023-01-06T17:23:46.156Z,53.38
2023-01-06T17:26:14.699Z,13.35
2023-01-06T17:28:41.098Z,18.65
2023-01-06T17:31:13.564Z,17.08
2023-01-06T17:33:39.898Z,24.00
2023-01-06T17:36:09.817Z,15.85
2023-01-06T17:38:36.286Z,19.25
2023-01-06T17:41:04.913Z,17.40
2023-01-06T17:43:33.560Z,16.33
2023-01-06T17:46:00.142Z,22.38
2023-01-06T17:48:26.926Z,20.33
2023-01-06T17:50:54.588Z,22.67
2023-01-06T17:53:42.718Z,18.50
2023-01-06T17:56:10.057Z,20.50
2023-01-06T17:58:37.830Z,14.10
2023-01-06T18:01:07.086Z,13.70
2023-01-06T18:03:34.814Z,20.70
2023-01-06T18:06:27.517Z,23.85
2023-01-06T18:08:59.141Z,9.05
2023-01-06T18:11:28.664Z,8.60
2023-01-06T18:13:55.175Z,16.60
2023-01-06T18:16:21.490Z,14.93
2023-01-06T18:18:47.909Z,12.20
2023-01-06T18:21:14.178Z,18.83
2023-01-06T18:23:41.755Z,20.13
2023-01-06T18:26:30.957Z,9.63
2023-01-06T18:28:59.185Z,15.68
2023-01-06T18:31:27.869Z,9.80
2023-01-06T18:33:54.312Z,16.25
2023-01-06T18:36:20.606Z,13.40
2023-01-06T18:38:47.176Z,19.80
2023-01-06T18:41:13.892Z,20.95
2023-01-06T18:43:41.700Z,19.55
2023-01-06T18:46:13.057Z,18.98
2023-01-06T18:48:39.607Z,16.63
2023-01-06T18:51:22.442Z,13.35
2023-01-06T18:53:49.639Z,13.73
2023-01-06T18:56:20.860Z,16.02
2023-01-06T18:58:49.030Z,13.50
2023-01-06T19:01:34.270Z,13.05
2023-01-06T19:04:03.825Z,16.75
2023-01-06T19:06:30.256Z,16.58
2023-01-06T19:08:56.837Z,15.30
2023-01-06T19:11:24.683Z,16.60
2023-01-06T19:13:52.869Z,13.95
2023-01-06T19:16:38.997Z,18.23
2023-01-06T19:19:08.441Z,14.70
2023-01-06T19:21:35.569Z,20.35
2023-01-06T19:24:32.762Z,23.40
2023-01-06T19:26:59.892Z,16.52
2023-01-06T19:29:27.443Z,17.23
2023-01-06T19:31:58.517Z,17.90
2023-01-06T19:34:25.740Z,15.27
2023-01-06T19:36:53.041Z,20.77
2023-01-06T19:39:24.167Z,20.70
2023-01-06T19:41:52.147Z,20.55
2023-01-06T19:44:18.780Z,23.73
2023-01-06T19:46:46.574Z,26.75
2023-01-06T19:49:21.193Z,18.85
2023-01-06T19:51:48.496Z,20.55
2023-01-06T19:54:14.782Z,17.80
2023-01-06T19:56:41.869Z,18.00
2023-01-06T19:59:25.151Z,18.10
2023-01-06T20:01:58.058Z,17.23
2023-01-06T20:04:26.357Z,18.25
2023-01-06T20:06:53.006Z,14.98
2023-01-06T20:09:21.746Z,14.85
2023-01-06T20:11:48.692Z,16.15
2023-01-06T20:14:15.044Z,12.95
2023-01-06T20:16:41.389Z,13.60
2023-01-06T20:19:07.849Z,13.15
2023-01-06T20:21:37.390Z,14.77
2023-01-06T20:24:04.519Z,15.55
2023-01-06T20:26:30.816Z,15.65
2023-01-06T20:28:57.126Z,16.30
2023-01-06T20:31:24.709Z,11.93
2023-01-06T20:33:51.049Z,12.35
2023-01-06T20:36:18.456Z,12.88
2023-01-06T20:38:45.095Z,13.45
2023-01-06T20:41:11.748Z,12.15
2023-01-06T20:43:38.108Z,14.80
2023-01-06T20:46:04.806Z,27.40
2023-01-06T20:48:31.213Z,11.90
2023-01-06T20:51:00.694Z,16.52
2023-01-06T20:53:27.331Z,11.07
2023-01-06T20:55:53.968Z,11.23
2023-01-06T20:58:20.246Z,9.80
2023-01-06T21:00:46.636Z,13.18
2023-01-06T21:03:12.961Z,10.35
2023-01-06T21:05:39.352Z,11.02
2023-01-06T21:08:05.689Z,12.25
2023-01-06T21:10:32.274Z,11.10
2023-01-06T21:12:58.672Z,12.77
2023-01-06T21:15:27.937Z,12.30
2023-01-06T21:17:54.486Z,15.98
2023-01-06T21:20:20.955Z,13.25
2023-01-06T21:22:47.315Z,17.48
2023-01-06T21:25:13.665Z,13.52
2023-01-06T21:27:39.977Z,13.07
2023-01-06T21:30:06.520Z,18.25
2023-01-06T21:32:32.878Z,15.18
2023-01-06T21:34:59.308Z,15.40
2023-01-06T21:37:25.919Z,15.48
2023-01-06T21:39:52.219Z,15.63
2023-01-06T21:42:37.472Z,15.30
2023-01-06T21:45:04.401Z,14.88
2023-01-06T21:47:30.722Z,15.07
2023-01-06T21:49:57.112Z,14.73
2023-01-06T21:52:23.455Z,16.10
2023-01-06T21:54:49.852Z,17.13
2023-01-06T21:57:16.221Z,19.20
2023-01-06T21:59:43.505Z,18.27
2023-01-06T22:02:09.981Z,17.55
2023-01-06T22:04:36.512Z,18.40
2023-01-06T22:07:03.843Z,19.02
2023-01-06T22:09:31.141Z,18.25
2023-01-06T22:11:57.852Z,19.48
2023-01-06T22:14:24.755Z,19.27
2023-01-06T22:16:51.448Z,19.40
2023-01-06T22:19:17.989Z,18.38
2023-01-06T22:21:44.575Z,16.80
2023-01-06T22:24:12.267Z,21.92
2023-01-06T22:26:38.682Z,18.52
2023-01-06T22:29:07.825Z,16.35
2023-01-06T22:31:35.132Z,17.70
2023-01-06T22:34:01.658Z,17.17
2023-01-06T22:36:27.997Z,19.85
2023-01-06T22:38:54.384Z,16.15
2023-01-06T22:41:20.933Z,15.70
2023-01-06T22:43:47.211Z,17.33
2023-01-06T22:46:15.221Z,20.13
2023-01-06T22:48:43.583Z,14.18
2023-01-06T22:51:11.145Z,15.48
2023-01-06T22:53:37.428Z,17.83
2023-01-06T22:56:05.359Z,19.45
2023-01-06T22:58:32.959Z,18.48
2023-01-06T23:00:59.325Z,14.98
2023-01-06T23:03:25.764Z,16.35
2023-01-06T23:05:59.259Z,15.20
2023-01-06T23:08:26.402Z,13.98
2023-01-06T23:11:00.234Z,15.88
2023-01-06T23:13:26.542Z,14.93
2023-01-06T23:16:00.154Z,14.05
2023-01-06T23:18:26.933Z,24.02
2023-01-06T23:21:00.603Z,18.60
2023-01-06T23:23:27.563Z,16.27
2023-01-06T23:25:54.165Z,16.90
2023-01-06T23:28:20.467Z,16.77
2023-01-06T23:30:46.821Z,14.45
2023-01-06T23:33:13.119Z,20.95
2023-01-06T23:35:39.455Z,12.60
2023-01-06T23:38:05.988Z,14.10
2023-01-06T23:40:32.296Z,17.33
2023-01-06T23:42:58.756Z,17.27
2023-01-06T23:45:25.071Z,14.82
2023-01-06T23:47:51.430Z,14.55
2023-01-06T23:50:17.732Z,17.35
2023-01-06T23:52:43.998Z,14.32
2023-01-06T23:55:10.273Z,20.77
2023-01-06T23:57:36.557Z,13.38
